sensor_id;sensor_type;location;lat;lon;timestamp;pressure;altitude;pressure_sealevel;temperature;humidity
67015;BME280;1033;52.560;13.374;2023-02-19T00:01:58;100923.13;;;5.85;98.92
67015;BME280;1033;52.560;13.374;2023-02-19T00:04:29;100920.28;;;5.79;99.07
67015;BME280;1033;52.560;13.374;2023-02-19T00:06:59;100922.66;;;5.65;100.00
67015;BME280;1033;52.560;13.374;2023-02-19T00:09:29;100925.47;;;5.80;100.00
67015;BME280;1033;52.560;13.374;2023-02-19T00:11:59;100911.59;;;5.60;100.00
67015;BME280;1033;52.560;13.374;2023-02-19T00:14:28;100914.56;;;5.74;100.00
67015;BME280;1033;52.560;13.374;2023-02-19T00:17:00;100911.53;;;5.77;100.00
67015;BME280;1033;52.560;13.374;2023-02-19T00:19:33;100907.84;;;5.78;99.91
67015;BME280;1033;52.560;13.374;2023-02-19T00:22:04;100903.47;;;5.77;100.00
67015;BME280;1033;52.560;13.374;2023-02-19T00:24:34;100914.56;;;5.82;100.00
67015;BME280;1033;52.560;13.374;2023-02-19T00:27:03;100918.56;;;5.86;99.76
67015;BME280;1033;52.560;13.374;2023-02-19T00:29:33;100913.22;;;5.78;99.34
67015;BME280;1033;52.560;13.374;2023-02-19T00:32:07;100910.88;;;5.83;99.73
67015;BME280;1033;52.560;13.374;2023-02-19T00:34:37;100899.47;;;5.81;100.00
67015;BME280;1033;52.560;13.374;2023-02-19T00:37:07;100899.63;;;5.79;97.69
67015;BME280;1033;52.560;13.374;2023-02-19T00:39:37;100890.09;;;5.68;98.55
67015;BME280;1033;52.560;13.374;2023-02-19T00:42:08;100876.66;;;5.52;98.90
67015;BME280;1033;52.560;13.374;2023-02-19T00:44:37;100887.94;;;5.56;98.52
67015;BME280;1033;52.560;13.374;2023-02-19T00:47:09;100884.91;;;5.43;98.69
67015;BME280;1033;52.560;13.374;2023-02-19T00:49:39;100892.28;;;5.65;98.87
67015;BME280;1033;52.560;13.374;2023-02-19T00:52:08;100897.66;;;5.65;97.69
67015;BME280;1033;52.560;13.374;2023-02-19T00:54:38;100886.09;;;5.56;99.03
67015;BME280;1033;52.560;13.374;2023-02-19T00:57:08;100889.75;;;5.63;99.76
67015;BME280;1033;52.560;13.374;2023-02-19T00:59:37;100883.34;;;5.73;99.01
67015;BME280;1033;52.560;13.374;2023-02-19T01:02:09;100875.97;;;5.75;98.06
67015;BME280;1033;52.560;13.374;2023-02-19T01:04:39;100889.91;;;5.78;97.89
67015;BME280;1033;52.560;13.374;2023-02-19T01:07:14;100881.50;;;5.81;98.13
67015;BME280;1033;52.560;13.374;2023-02-19T01:09:44;100873.63;;;5.80;97.70
67015;BME280;1033;52.560;13.374;2023-02-19T01:12:14;100873.31;;;5.58;98.26
67015;BME280;1033;52.560;13.374;2023-02-19T01:14:44;100869.47;;;5.61;98.65
67015;BME280;1033;52.560;13.374;2023-02-19T01:17:15;100869.97;;;5.48;98.94
67015;BME280;1033;52.560;13.374;2023-02-19T01:19:45;100867.31;;;5.56;99.72
67015;BME280;1033;52.560;13.374;2023-02-19T01:22:15;100868.63;;;5.52;99.57
67015;BME280;1033;52.560;13.374;2023-02-19T01:24:44;100852.19;;;5.47;99.66
67015;BME280;1033;52.560;13.374;2023-02-19T01:27:14;100840.66;;;5.47;99.93
67015;BME280;1033;52.560;13.374;2023-02-19T01:29:44;100851.22;;;5.40;100.00
67015;BME280;1033;52.560;13.374;2023-02-19T01:32:15;100844.00;;;5.41;100.00
67015;BME280;1033;52.560;13.374;2023-02-19T01:34:45;100828.72;;;5.49;100.00
67015;BME280;1033;52.560;13.374;2023-02-19T01:37:15;100823.72;;;5.30;100.00
67015;BME280;1033;52.560;13.374;2023-02-19T01:39:46;100821.38;;;5.19;100.00
67015;BME280;1033;52.560;13.374;2023-02-19T01:42:16;100836.81;;;5.17;100.00
67015;BME280;1033;52.560;13.374;2023-02-19T01:48:05;100828.09;;;5.15;100.00
67015;BME280;1033;52.560;13.374;2023-02-19T01:50:40;100825.75;;;5.12;100.00
67015;BME280;1033;52.560;13.374;2023-02-19T01:53:13;100823.91;;;5.04;100.00
67015;BME280;1033;52.560;13.374;2023-02-19T01:55:47;100822.91;;;5.05;100.00
67015;BME280;1033;52.560;13.374;2023-02-19T01:58:18;100822.41;;;5.02;100.00
67015;BME280;1033;52.560;13.374;2023-02-19T02:00:48;100812.34;;;4.96;100.00
67015;BME280;1033;52.560;13.374;2023-02-19T02:03:20;100809.31;;;4.91;100.00
67015;BME280;1033;52.560;13.374;2023-02-19T02:05:55;100794.75;;;4.93;100.00
67015;BME280;1033;52.560;13.374;2023-02-19T02:08:26;100795.91;;;4.82;100.00
67015;BME280;1033;52.560;13.374;2023-02-19T02:11:13;100786.53;;;4.95;100.00
67015;BME280;1033;52.560;13.374;2023-02-19T02:13:43;100797.59;;;5.08;100.00
67015;BME280;1033;52.560;13.374;2023-02-19T02:16:32;100793.56;;;4.96;100.00
67015;BME280;1033;52.560;13.374;2023-02-19T02:19:20;100806.78;;;4.89;100.00
67015;BME280;1033;52.560;13.374;2023-02-19T02:22:06;100804.44;;;4.70;100.00
67015;BME280;1033;52.560;13.374;2023-02-19T02:27:50;100813.31;;;4.70;100.00
67015;BME280;1033;52.560;13.374;2023-02-19T02:30:38;100808.66;;;4.72;100.00
67015;BME280;1033;52.560;13.374;2023-02-19T02:33:19;100804.28;;;4.79;100.00
67015;BME280;1033;52.560;13.374;2023-02-19T02:35:53;100802.97;;;4.84;100.00
67015;BME280;1033;52.560;13.374;2023-02-19T02:38:29;100801.94;;;4.76;100.00
67015;BME280;1033;52.560;13.374;2023-02-19T02:41:02;100799.44;;;4.83;100.00
67015;BME280;1033;52.560;13.374;2023-02-19T02:43:32;100801.44;;;4.81;99.91
67015;BME280;1033;52.560;13.374;2023-02-19T02:46:04;100795.22;;;4.80;99.28
67015;BME280;1033;52.560;13.374;2023-02-19T02:48:38;100789.56;;;4.84;99.43
67015;BME280;1033;52.560;13.374;2023-02-19T02:51:15;100799.25;;;4.76;99.22
67015;BME280;1033;52.560;13.374;2023-02-19T02:53:53;100809.00;;;4.69;100.00
67015;BME280;1033;52.560;13.374;2023-02-19T02:56:44;100807.63;;;4.65;100.00
67015;BME280;1033;52.560;13.374;2023-02-19T02:59:16;100809.31;;;4.66;100.00
67015;BME280;1033;52.560;13.374;2023-02-19T03:01:50;100803.44;;;4.63;100.00
67015;BME280;1033;52.560;13.374;2023-02-19T03:04:46;100809.13;;;4.52;100.00
67015;BME280;1033;52.560;13.374;2023-02-19T03:07:37;100809.81;;;4.54;100.00
67015;BME280;1033;52.560;13.374;2023-02-19T03:10:11;100811.63;;;4.45;100.00
67015;BME280;1033;52.560;13.374;2023-02-19T03:12:42;100813.97;;;4.48;100.00
67015;BME280;1033;52.560;13.374;2023-02-19T03:15:34;100817.66;;;4.39;100.00
67015;BME280;1033;52.560;13.374;2023-02-19T03:18:26;100823.34;;;4.44;100.00
67015;BME280;1033;52.560;13.374;2023-02-19T03:21:19;100830.00;;;4.32;100.00
67015;BME280;1033;52.560;13.374;2023-02-19T03:23:52;100821.66;;;4.35;100.00
67015;BME280;1033;52.560;13.374;2023-02-19T03:26:40;100826.19;;;4.34;100.00
67015;BME280;1033;52.560;13.374;2023-02-19T03:29:14;100829.34;;;4.30;100.00
67015;BME280;1033;52.560;13.374;2023-02-19T03:32:05;100833.28;;;4.10;100.00
67015;BME280;1033;52.560;13.374;2023-02-19T03:34:43;100840.94;;;3.97;100.00
67015;BME280;1033;52.560;13.374;2023-02-19T03:37:19;100842.06;;;3.86;100.00
67015;BME280;1033;52.560;13.374;2023-02-19T03:39:53;100837.09;;;3.65;99.93
67015;BME280;1033;52.560;13.374;2023-02-19T03:42:34;100841.72;;;3.55;99.50
67015;BME280;1033;52.560;13.374;2023-02-19T03:45:41;100841.16;;;3.43;100.00
67015;BME280;1033;52.560;13.374;2023-02-19T03:48:22;100843.75;;;3.35;99.79
67015;BME280;1033;52.560;13.374;2023-02-19T03:51:23;100844.22;;;3.31;100.00
67015;BME280;1033;52.560;13.374;2023-02-19T03:54:03;100844.59;;;3.36;100.00
67015;BME280;1033;52.560;13.374;2023-02-19T03:56:42;100845.78;;;3.33;100.00
67015;BME280;1033;52.560;13.374;2023-02-19T03:59:17;100843.25;;;3.32;100.00
67015;BME280;1033;52.560;13.374;2023-02-19T04:01:57;100843.25;;;3.32;100.00
67015;BME280;1033;52.560;13.374;2023-02-19T04:04:32;100849.09;;;3.35;100.00
67015;BME280;1033;52.560;13.374;2023-02-19T04:07:11;100848.13;;;3.36;100.00
67015;BME280;1033;52.560;13.374;2023-02-19T04:09:47;100856.47;;;3.33;100.00
67015;BME280;1033;52.560;13.374;2023-02-19T04:12:23;100859.34;;;3.40;100.00
67015;BME280;1033;52.560;13.374;2023-02-19T04:15:10;100855.41;;;3.26;100.00
67015;BME280;1033;52.560;13.374;2023-02-19T04:17:48;100855.81;;;3.14;100.00
67015;BME280;1033;52.560;13.374;2023-02-19T04:20:25;100856.44;;;3.08;100.00
67015;BME280;1033;52.560;13.374;2023-02-19T04:23:03;100859.88;;;3.00;100.00
67015;BME280;1033;52.560;13.374;2023-02-19T04:25:34;100858.41;;;3.05;100.00
67015;BME280;1033;52.560;13.374;2023-02-19T04:28:13;100876.75;;;3.00;100.00
67015;BME280;1033;52.560;13.374;2023-02-19T04:30:45;100880.44;;;2.99;100.00
67015;BME280;1033;52.560;13.374;2023-02-19T04:33:17;100875.38;;;2.96;100.00
67015;BME280;1033;52.560;13.374;2023-02-19T04:35:49;100879.25;;;3.02;100.00
67015;BME280;1033;52.560;13.374;2023-02-19T04:38:41;100883.78;;;3.01;100.00
67015;BME280;1033;52.560;13.374;2023-02-19T04:41:13;100881.41;;;2.98;100.00
67015;BME280;1033;52.560;13.374;2023-02-19T04:43:45;100872.47;;;3.08;100.00
67015;BME280;1033;52.560;13.374;2023-02-19T04:46:20;100881.47;;;3.06;100.00
67015;BME280;1033;52.560;13.374;2023-02-19T04:48:52;100883.47;;;3.04;100.00
67015;BME280;1033;52.560;13.374;2023-02-19T04:51:26;100883.16;;;3.08;100.00
67015;BME280;1033;52.560;13.374;2023-02-19T04:53:59;100900.72;;;2.92;100.00
67015;BME280;1033;52.560;13.374;2023-02-19T04:56:34;100889.81;;;2.86;100.00
67015;BME280;1033;52.560;13.374;2023-02-19T04:59:06;100900.81;;;2.83;100.00
67015;BME280;1033;52.560;13.374;2023-02-19T05:01:39;100893.63;;;2.83;100.00
67015;BME280;1033;52.560;13.374;2023-02-19T05:04:12;100894.00;;;2.88;100.00
67015;BME280;1033;52.560;13.374;2023-02-19T05:06:49;100901.19;;;2.88;100.00
67015;BME280;1033;52.560;13.374;2023-02-19T05:09:23;100895.69;;;2.89;100.00
67015;BME280;1033;52.560;13.374;2023-02-19T05:11:56;100900.50;;;2.86;100.00
67015;BME280;1033;52.560;13.374;2023-02-19T05:14:29;100904.78;;;2.79;100.00
67015;BME280;1033;52.560;13.374;2023-02-19T05:17:07;100904.63;;;2.80;100.00
67015;BME280;1033;52.560;13.374;2023-02-19T05:19:39;100896.91;;;2.77;100.00
67015;BME280;1033;52.560;13.374;2023-02-19T05:22:15;100890.56;;;2.78;100.00
67015;BME280;1033;52.560;13.374;2023-02-19T05:24:48;100887.06;;;2.78;100.00
67015;BME280;1033;52.560;13.374;2023-02-19T05:27:18;100892.41;;;2.78;100.00
67015;BME280;1033;52.560;13.374;2023-02-19T05:29:49;100886.59;;;2.82;100.00
67015;BME280;1033;52.560;13.374;2023-02-19T05:32:20;100893.56;;;2.75;100.00
67015;BME280;1033;52.560;13.374;2023-02-19T05:34:51;100888.88;;;2.77;100.00
67015;BME280;1033;52.560;13.374;2023-02-19T05:37:35;100896.31;;;2.83;100.00
67015;BME280;1033;52.560;13.374;2023-02-19T05:40:14;100894.56;;;2.74;100.00
67015;BME280;1033;52.560;13.374;2023-02-19T05:42:51;100892.41;;;2.78;100.00
67015;BME280;1033;52.560;13.374;2023-02-19T05:45:24;100901.97;;;2.80;100.00
67015;BME280;1033;52.560;13.374;2023-02-19T05:48:02;100901.97;;;2.80;100.00
67015;BME280;1033;52.560;13.374;2023-02-19T05:50:44;100901.97;;;2.80;100.00
67015;BME280;1033;52.560;13.374;2023-02-19T05:53:15;100913.63;;;2.79;100.00
67015;BME280;1033;52.560;13.374;2023-02-19T05:55:47;100907.38;;;2.71;100.00
67015;BME280;1033;52.560;13.374;2023-02-19T05:58:20;100910.50;;;2.66;100.00
67015;BME280;1033;52.560;13.374;2023-02-19T06:00:51;100900.75;;;2.75;100.00
67015;BME280;1033;52.560;13.374;2023-02-19T06:03:21;100910.88;;;2.71;100.00
67015;BME280;1033;52.560;13.374;2023-02-19T06:05:53;100909.91;;;2.90;100.00
67015;BME280;1033;52.560;13.374;2023-02-19T06:08:24;100900.41;;;2.95;100.00
67015;BME280;1033;52.560;13.374;2023-02-19T06:10:57;100904.63;;;2.80;100.00
67015;BME280;1033;52.560;13.374;2023-02-19T06:13:30;100901.81;;;2.99;100.00
67015;BME280;1033;52.560;13.374;2023-02-19T06:16:03;100894.47;;;3.01;100.00
67015;BME280;1033;52.560;13.374;2023-02-19T06:18:33;100908.50;;;2.86;100.00
67015;BME280;1033;52.560;13.374;2023-02-19T06:21:06;100911.75;;;2.89;100.00
67015;BME280;1033;52.560;13.374;2023-02-19T06:23:38;100891.16;;;3.25;100.00
67015;BME280;1033;52.560;13.374;2023-02-19T06:26:13;100909.31;;;3.39;100.00
67015;BME280;1033;52.560;13.374;2023-02-19T06:28:47;100920.44;;;3.27;100.00
67015;BME280;1033;52.560;13.374;2023-02-19T06:31:19;100922.78;;;3.30;100.00
67015;BME280;1033;52.560;13.374;2023-02-19T06:33:50;100929.44;;;3.26;100.00
67015;BME280;1033;52.560;13.374;2023-02-19T06:36:25;100936.41;;;3.19;100.00
67015;BME280;1033;52.560;13.374;2023-02-19T06:38:59;100943.59;;;3.18;100.00
67015;BME280;1033;52.560;13.374;2023-02-19T06:41:31;100950.78;;;3.18;100.00
67015;BME280;1033;52.560;13.374;2023-02-19T06:44:02;100963.22;;;3.27;100.00
67015;BME280;1033;52.560;13.374;2023-02-19T06:46:32;100967.47;;;3.20;100.00
67015;BME280;1033;52.560;13.374;2023-02-19T06:49:04;100970.88;;;3.22;100.00
67015;BME280;1033;52.560;13.374;2023-02-19T06:51:34;100968.25;;;3.30;100.00
67015;BME280;1033;52.560;13.374;2023-02-19T06:54:04;100975.34;;;3.39;100.00
67015;BME280;1033;52.560;13.374;2023-02-19T06:56:36;100980.47;;;3.50;100.00
67015;BME280;1033;52.560;13.374;2023-02-19T06:59:09;100981.16;;;3.52;100.00
67015;BME280;1033;52.560;13.374;2023-02-19T07:01:39;100991.41;;;3.57;100.00
67015;BME280;1033;52.560;13.374;2023-02-19T07:04:09;100994.59;;;3.60;100.00
67015;BME280;1033;52.560;13.374;2023-02-19T07:06:39;100996.16;;;3.63;100.00
67015;BME280;1033;52.560;13.374;2023-02-19T07:09:10;101000.09;;;3.59;100.00
67015;BME280;1033;52.560;13.374;2023-02-19T07:11:41;100999.91;;;3.52;100.00
67015;BME280;1033;52.560;13.374;2023-02-19T07:14:14;101000.09;;;3.59;100.00
67015;BME280;1033;52.560;13.374;2023-02-19T07:16:45;101004.72;;;3.48;100.00
67015;BME280;1033;52.560;13.374;2023-02-19T07:19:15;101015.69;;;3.63;100.00
67015;BME280;1033;52.560;13.374;2023-02-19T07:21:44;101022.06;;;3.62;100.00
67015;BME280;1033;52.560;13.374;2023-02-19T07:24:14;101020.31;;;3.53;100.00
67015;BME280;1033;52.560;13.374;2023-02-19T07:26:45;101016.63;;;3.54;100.00
67015;BME280;1033;52.560;13.374;2023-02-19T07:29:14;101029.25;;;3.62;100.00
67015;BME280;1033;52.560;13.374;2023-02-19T07:31:44;101038.13;;;3.62;100.00
67015;BME280;1033;52.560;13.374;2023-02-19T07:34:13;101031.63;;;3.82;100.00
67015;BME280;1033;52.560;13.374;2023-02-19T07:36:42;101031.53;;;3.74;99.93
67015;BME280;1033;52.560;13.374;2023-02-19T07:39:13;101037.72;;;3.75;99.60
67015;BME280;1033;52.560;13.374;2023-02-19T07:41:44;101038.09;;;3.80;99.66
67015;BME280;1033;52.560;13.374;2023-02-19T07:44:25;101045.69;;;3.67;98.82
67015;BME280;1033;52.560;13.374;2023-02-19T07:46:56;101054.00;;;3.64;98.30
67015;BME280;1033;52.560;13.374;2023-02-19T07:49:25;101053.25;;;3.71;99.92
67015;BME280;1033;52.560;13.374;2023-02-19T07:51:55;101059.28;;;3.73;98.99
67015;BME280;1033;52.560;13.374;2023-02-19T07:54:24;101068.78;;;3.68;98.79
67015;BME280;1033;52.560;13.374;2023-02-19T07:56:55;101075.50;;;3.72;98.29
67015;BME280;1033;52.560;13.374;2023-02-19T07:59:26;101078.41;;;3.61;98.13
67015;BME280;1033;52.560;13.374;2023-02-19T08:01:56;101082.47;;;3.82;99.73
67015;BME280;1033;52.560;13.374;2023-02-19T08:04:42;101089.56;;;3.91;97.40
67015;BME280;1033;52.560;13.374;2023-02-19T08:07:12;101093.09;;;3.74;97.14
67015;BME280;1033;52.560;13.374;2023-02-19T08:09:42;101103.56;;;3.85;97.90
67015;BME280;1033;52.560;13.374;2023-02-19T08:12:13;101104.63;;;3.92;97.07
67015;BME280;1033;52.560;13.374;2023-02-19T08:15:00;101106.22;;;4.03;96.89
67015;BME280;1033;52.560;13.374;2023-02-19T08:17:29;101115.78;;;3.88;96.57
67015;BME280;1033;52.560;13.374;2023-02-19T08:19:58;101108.75;;;3.69;95.28
67015;BME280;1033;52.560;13.374;2023-02-19T08:22:28;101128.63;;;3.49;96.05
67015;BME280;1033;52.560;13.374;2023-02-19T08:24:58;101140.88;;;3.69;97.35
67015;BME280;1033;52.560;13.374;2023-02-19T08:27:28;101146.22;;;3.69;96.66
67015;BME280;1033;52.560;13.374;2023-02-19T08:29:58;101150.81;;;3.59;95.52
67015;BME280;1033;52.560;13.374;2023-02-19T08:32:28;101153.88;;;3.64;96.15
67015;BME280;1033;52.560;13.374;2023-02-19T08:34:59;101162.00;;;3.72;95.48
67015;BME280;1033;52.560;13.374;2023-02-19T08:37:33;101160.53;;;3.78;94.92
67015;BME280;1033;52.560;13.374;2023-02-19T08:40:02;101167.97;;;3.84;93.71
67015;BME280;1033;52.560;13.374;2023-02-19T08:42:33;101169.19;;;3.89;94.39
67015;BME280;1033;52.560;13.374;2023-02-19T08:45:03;101171.78;;;4.17;93.87
67015;BME280;1033;52.560;13.374;2023-02-19T08:47:34;101173.53;;;4.44;92.15
67015;BME280;1033;52.560;13.374;2023-02-19T08:50:05;101180.19;;;4.22;90.42
67015;BME280;1033;52.560;13.374;2023-02-19T08:52:35;101187.50;;;4.29;91.30
67015;BME280;1033;52.560;13.374;2023-02-19T08:55:05;101181.34;;;4.55;91.25
67015;BME280;1033;52.560;13.374;2023-02-19T08:57:37;101188.03;;;4.85;88.39
67015;BME280;1033;52.560;13.374;2023-02-19T09:00:08;101200.97;;;4.89;88.52
67015;BME280;1033;52.560;13.374;2023-02-19T09:02:37;101202.88;;;4.97;86.84
67015;BME280;1033;52.560;13.374;2023-02-19T09:05:11;101201.28;;;4.60;87.12
67015;BME280;1033;52.560;13.374;2023-02-19T09:07:41;101208.03;;;4.47;87.82
67015;BME280;1033;52.560;13.374;2023-02-19T09:10:12;101215.13;;;4.30;87.88
67015;BME280;1033;52.560;13.374;2023-02-19T09:12:43;101218.00;;;4.36;88.85
67015;BME280;1033;52.560;13.374;2023-02-19T09:15:13;101219.69;;;4.37;88.68
67015;BME280;1033;52.560;13.374;2023-02-19T09:17:42;101219.84;;;4.54;88.50
67015;BME280;1033;52.560;13.374;2023-02-19T09:20:12;101219.84;;;4.79;89.00
67015;BME280;1033;52.560;13.374;2023-02-19T09:22:41;101230.53;;;4.71;86.76
67015;BME280;1033;52.560;13.374;2023-02-19T09:25:10;101239.00;;;4.85;87.29
67015;BME280;1033;52.560;13.374;2023-02-19T09:27:42;101222.97;;;4.93;86.48
67015;BME280;1033;52.560;13.374;2023-02-19T09:30:11;101234.19;;;4.70;86.45
67015;BME280;1033;52.560;13.374;2023-02-19T09:32:41;101234.56;;;4.75;87.00
67015;BME280;1033;52.560;13.374;2023-02-19T09:35:10;101228.75;;;4.80;86.76
67015;BME280;1033;52.560;13.374;2023-02-19T09:37:40;101245.38;;;5.09;86.32
67015;BME280;1033;52.560;13.374;2023-02-19T09:40:10;101244.41;;;5.18;84.78
67015;BME280;1033;52.560;13.374;2023-02-19T09:42:42;101242.28;;;5.22;85.28
67015;BME280;1033;52.560;13.374;2023-02-19T09:45:18;101250.09;;;4.90;85.40
67015;BME280;1033;52.560;13.374;2023-02-19T09:47:53;101247.16;;;5.27;84.49
67015;BME280;1033;52.560;13.374;2023-02-19T09:50:30;101254.56;;;5.33;83.97
67015;BME280;1033;52.560;13.374;2023-02-19T09:53:03;101261.69;;;5.16;84.44
67015;BME280;1033;52.560;13.374;2023-02-19T09:55:37;101257.06;;;5.26;83.54
67015;BME280;1033;52.560;13.374;2023-02-19T09:58:21;101276.59;;;5.44;84.43
67015;BME280;1033;52.560;13.374;2023-02-19T10:00:55;101258.56;;;5.62;79.83
67015;BME280;1033;52.560;13.374;2023-02-19T10:03:26;101267.16;;;5.32;80.95
67015;BME280;1033;52.560;13.374;2023-02-19T10:06:00;101275.69;;;5.28;80.76
67015;BME280;1033;52.560;13.374;2023-02-19T10:08:32;101270.66;;;5.33;81.18
67015;BME280;1033;52.560;13.374;2023-02-19T10:11:03;101286.09;;;5.31;77.71
67015;BME280;1033;52.560;13.374;2023-02-19T10:13:38;101283.19;;;5.24;79.19
67015;BME280;1033;52.560;13.374;2023-02-19T10:16:13;101277.47;;;5.19;79.38
67015;BME280;1033;52.560;13.374;2023-02-19T10:18:45;101288.47;;;5.67;79.16
67015;BME280;1033;52.560;13.374;2023-02-19T10:21:18;101306.91;;;5.62;79.47
67015;BME280;1033;52.560;13.374;2023-02-19T10:23:52;101307.81;;;5.45;79.25
67015;BME280;1033;52.560;13.374;2023-02-19T10:26:52;101319.66;;;5.60;77.37
67015;BME280;1033;52.560;13.374;2023-02-19T10:29:24;101311.00;;;5.75;77.21
67015;BME280;1033;52.560;13.374;2023-02-19T10:32:13;101321.44;;;5.86;76.50
67015;BME280;1033;52.560;13.374;2023-02-19T10:34:45;101316.50;;;5.99;75.76
67015;BME280;1033;52.560;13.374;2023-02-19T10:37:16;101318.78;;;6.28;74.13
67015;BME280;1033;52.560;13.374;2023-02-19T10:39:47;101321.69;;;6.42;73.99
67015;BME280;1033;52.560;13.374;2023-02-19T10:42:20;101341.19;;;6.61;73.51
67015;BME280;1033;52.560;13.374;2023-02-19T10:44:54;101346.25;;;6.80;72.57
67015;BME280;1033;52.560;13.374;2023-02-19T10:47:27;101345.25;;;6.73;71.15
67015;BME280;1033;52.560;13.374;2023-02-19T10:50:00;101348.69;;;6.33;69.55
67015;BME280;1033;52.560;13.374;2023-02-19T10:52:32;101346.22;;;5.72;71.09
67015;BME280;1033;52.560;13.374;2023-02-19T10:55:24;101344.25;;;5.82;72.16
67015;BME280;1033;52.560;13.374;2023-02-19T10:57:55;101355.66;;;5.76;69.04
67015;BME280;1033;52.560;13.374;2023-02-19T11:00:28;101349.81;;;6.14;70.34
67015;BME280;1033;52.560;13.374;2023-02-19T11:03:18;101359.13;;;5.94;69.22
67015;BME280;1033;52.560;13.374;2023-02-19T11:06:02;101368.59;;;5.80;69.32
67015;BME280;1033;52.560;13.374;2023-02-19T11:08:52;101377.19;;;5.84;68.20
67015;BME280;1033;52.560;13.374;2023-02-19T11:11:27;101383.78;;;5.63;69.26
67015;BME280;1033;52.560;13.374;2023-02-19T11:14:01;101395.09;;;6.01;69.01
67015;BME280;1033;52.560;13.374;2023-02-19T11:16:44;101393.78;;;6.05;67.98
67015;BME280;1033;52.560;13.374;2023-02-19T11:19:36;101413.00;;;6.26;66.79
67015;BME280;1033;52.560;13.374;2023-02-19T11:22:28;101408.28;;;6.20;65.79
67015;BME280;1033;52.560;13.374;2023-02-19T11:25:03;101416.81;;;6.16;65.73
67015;BME280;1033;52.560;13.374;2023-02-19T11:27:34;101411.06;;;6.44;64.46
67015;BME280;1033;52.560;13.374;2023-02-19T11:30:35;101411.66;;;6.80;63.37
67015;BME280;1033;52.560;13.374;2023-02-19T11:33:25;101397.94;;;6.41;63.34
67015;BME280;1033;52.560;13.374;2023-02-19T11:38:45;101415.91;;;6.91;63.57
67015;BME280;1033;52.560;13.374;2023-02-19T11:41:20;101416.91;;;6.90;61.14
67015;BME280;1033;52.560;13.374;2023-02-19T11:44:02;101420.28;;;7.08;61.85
67015;BME280;1033;52.560;13.374;2023-02-19T11:46:49;101422.31;;;7.22;60.97
67015;BME280;1033;52.560;13.374;2023-02-19T11:49:38;101424.31;;;7.36;58.62
67015;BME280;1033;52.560;13.374;2023-02-19T11:52:21;101405.84;;;7.25;59.60
67015;BME280;1033;52.560;13.374;2023-02-19T11:55:04;101409.75;;;7.94;58.60
67015;BME280;1033;52.560;13.374;2023-02-19T11:57:40;101407.94;;;7.86;57.02
67015;BME280;1033;52.560;13.374;2023-02-19T12:00:34;101395.16;;;7.89;57.41
67015;BME280;1033;52.560;13.374;2023-02-19T12:03:26;101417.53;;;7.89;57.21
67015;BME280;1033;52.560;13.374;2023-02-19T12:06:08;101419.25;;;7.82;56.79
67015;BME280;1033;52.560;13.374;2023-02-19T12:09:01;101432.88;;;7.80;56.95
67015;BME280;1033;52.560;13.374;2023-02-19T12:11:56;101436.78;;;7.37;58.31
67015;BME280;1033;52.560;13.374;2023-02-19T12:17:55;101439.78;;;6.86;61.02
67015;BME280;1033;52.560;13.374;2023-02-19T12:20:33;101438.84;;;6.61;62.50
67015;BME280;1033;52.560;13.374;2023-02-19T12:26:22;101433.53;;;6.85;60.77
67015;BME280;1033;52.560;13.374;2023-02-19T12:29:14;101433.94;;;7.15;58.81
67015;BME280;1033;52.560;13.374;2023-02-19T12:35:24;101452.28;;;7.52;56.99
67015;BME280;1033;52.560;13.374;2023-02-19T12:38:01;101449.00;;;8.13;56.35
67015;BME280;1033;52.560;13.374;2023-02-19T12:40:49;101460.97;;;8.02;55.08
67015;BME280;1033;52.560;13.374;2023-02-19T12:43:22;101456.41;;;8.11;53.69
67015;BME280;1033;52.560;13.374;2023-02-19T12:45:54;101465.16;;;8.05;53.60
67015;BME280;1033;52.560;13.374;2023-02-19T12:48:29;101460.78;;;8.04;54.00
67015;BME280;1033;52.560;13.374;2023-02-19T12:51:06;101462.84;;;7.85;53.59
67015;BME280;1033;52.560;13.374;2023-02-19T12:53:43;101468.25;;;7.85;53.72
67015;BME280;1033;52.560;13.374;2023-02-19T12:56:20;101464.53;;;7.70;53.83
67015;BME280;1033;52.560;13.374;2023-02-19T12:58:54;101465.19;;;7.97;54.33
67015;BME280;1033;52.560;13.374;2023-02-19T13:01:27;101464.88;;;7.75;54.80
67015;BME280;1033;52.560;13.374;2023-02-19T13:04:13;101461.72;;;7.39;54.85
67015;BME280;1033;52.560;13.374;2023-02-19T13:06:50;101470.28;;;7.35;55.57
67015;BME280;1033;52.560;13.374;2023-02-19T13:09:25;101480.91;;;7.45;54.71
67015;BME280;1033;52.560;13.374;2023-02-19T13:12:01;101484.59;;;7.35;54.08
67015;BME280;1033;52.560;13.374;2023-02-19T13:14:35;101482.41;;;7.31;54.32
67015;BME280;1033;52.560;13.374;2023-02-19T13:17:13;101491.28;;;7.31;54.66
67015;BME280;1033;52.560;13.374;2023-02-19T13:19:47;101489.63;;;7.47;54.09
67015;BME280;1033;52.560;13.374;2023-02-19T13:22:24;101493.94;;;7.07;55.41
67015;BME280;1033;52.560;13.374;2023-02-19T13:25:14;101493.72;;;6.84;55.56
67015;BME280;1033;52.560;13.374;2023-02-19T13:28:12;101492.00;;;6.67;56.72
67015;BME280;1033;52.560;13.374;2023-02-19T13:31:00;101490.50;;;6.73;57.42
67015;BME280;1033;52.560;13.374;2023-02-19T13:33:42;101498.41;;;6.74;55.37
67015;BME280;1033;52.560;13.374;2023-02-19T13:36:17;101498.22;;;6.68;55.29
67015;BME280;1033;52.560;13.374;2023-02-19T13:38:50;101507.66;;;6.72;54.78
67015;BME280;1033;52.560;13.374;2023-02-19T13:41:25;101494.09;;;6.47;55.26
67015;BME280;1033;52.560;13.374;2023-02-19T13:44:00;101481.00;;;6.52;55.45
67015;BME280;1033;52.560;13.374;2023-02-19T13:46:38;101507.53;;;6.47;55.90
67015;BME280;1033;52.560;13.374;2023-02-19T13:49:40;101513.06;;;6.46;56.55
67015;BME280;1033;52.560;13.374;2023-02-19T13:52:33;101506.31;;;6.34;56.34
67015;BME280;1033;52.560;13.374;2023-02-19T13:58:36;101512.72;;;6.41;55.75
67015;BME280;1033;52.560;13.374;2023-02-19T14:01:09;101523.00;;;6.53;55.84